Time;durP1;ratioP1;P1;durP2;ratioP2;P2;SDS_P1;SDS_P2;PMS_P1;PMS_P2;Temp;Humidity;BMP_temperature;BMP_pressure;BME280_temperature;BME280_humidity;BME280_pressure;Samples;Min_cycle;Max_cycle;Signal;HPM_P1;HPM_P2
2021/07/19 00:00:41;;;;;;;6.40;2.45;;;;;;;25.06;54.96;100218.34;5007131;28;20037;-71
2021/07/19 00:03:08;;;;;;;6.85;2.22;;;;;;;25.10;54.64;100221.75;5004710;28;20049;-70
2021/07/19 00:05:35;;;;;;;4.78;2.40;;;;;;;25.08;54.83;100219.13;5005706;28;20046;-70
2021/07/19 00:08:03;;;;;;;5.55;1.95;;;;;;;25.08;54.95;100220.97;5006099;28;20042;-70
2021/07/19 00:10:30;;;;;;;7.20;2.28;;;;;;;25.01;55.27;100223.97;5005598;28;20038;-71
2021/07/19 00:12:57;;;;;;;6.53;2.03;;;;;;;24.99;55.28;100225.03;5006327;28;20418;-71
2021/07/19 00:15:29;;;;;;;5.15;1.85;;;;;;;24.99;55.28;100217.81;5005096;28;20050;-71
2021/07/19 00:17:58;;;;;;;4.03;2.00;;;;;;;24.96;55.48;100222.47;5005890;28;20038;-70
2021/07/19 00:20:26;;;;;;;5.95;2.00;;;;;;;24.92;55.34;100216.38;5006042;28;20060;-71
2021/07/19 00:22:54;;;;;;;5.80;1.90;;;;;;;24.87;55.40;100217.53;4987140;28;20162;-70
2021/07/19 00:25:24;;;;;;;7.45;2.03;;;;;;;24.83;55.39;100215.94;4988508;28;23552;-71
2021/07/19 00:27:55;;;;;;;7.97;2.20;;;;;;;24.72;55.53;100224.59;5002513;28;20064;-70
2021/07/19 00:30:23;;;;;;;7.05;2.15;;;;;;;24.71;55.33;100228.25;5005334;28;20053;-70
2021/07/19 00:32:52;;;;;;;6.05;2.17;;;;;;;24.68;55.82;100224.84;5006711;28;20720;-70
2021/07/19 00:35:20;;;;;;;5.38;2.15;;;;;;;24.64;55.64;100226.81;5008924;28;20042;-70
2021/07/19 00:37:47;;;;;;;5.53;2.03;;;;;;;24.64;55.55;100234.91;5010919;28;20392;-71
2021/07/19 00:40:18;;;;;;;8.60;2.10;;;;;;;24.65;55.49;100227.69;5009568;28;20042;-70
2021/07/19 00:42:47;;;;;;;5.88;2.15;;;;;;;24.67;55.47;100228.50;5005801;28;20142;-71
2021/07/19 00:45:19;;;;;;;5.90;2.10;;;;;;;24.62;55.85;100237.69;4991897;28;20038;-70
2021/07/19 00:47:48;;;;;;;8.52;2.00;;;;;;;24.62;55.61;100240.38;5010161;28;20057;-71
2021/07/19 00:50:18;;;;;;;5.68;1.95;;;;;;;24.59;55.97;100245.06;5008609;28;20053;-70
2021/07/19 00:52:46;;;;;;;8.80;2.55;;;;;;;24.48;56.05;100242.91;5009662;28;20262;-71
2021/07/19 00:55:15;;;;;;;7.55;2.15;;;;;;;24.43;56.24;100247.66;5008015;28;20040;-70
2021/07/19 00:57:50;;;;;;;7.47;2.17;;;;;;;24.49;56.30;100247.34;5009372;28;20096;-70
2021/07/19 01:00:18;;;;;;;7.80;2.20;;;;;;;24.51;56.09;100255.38;5008525;28;20399;-70
2021/07/19 01:02:49;;;;;;;4.57;2.20;;;;;;;24.53;55.90;100253.50;5009370;28;20037;-70
2021/07/19 01:05:19;;;;;;;5.10;1.98;;;;;;;24.49;56.14;100262.66;5007994;28;20042;-70
2021/07/19 01:07:48;;;;;;;6.03;2.08;;;;;;;24.51;56.02;100261.66;5009035;28;20046;-71
2021/07/19 01:10:19;;;;;;;5.63;2.05;;;;;;;24.50;56.33;100259.91;5009182;28;20431;-71
2021/07/19 01:12:49;;;;;;;8.77;2.30;;;;;;;24.50;56.38;100259.03;5008793;28;20069;-70
2021/07/19 01:15:17;;;;;;;11.23;2.50;;;;;;;24.53;56.48;100261.59;5007238;28;20034;-70
2021/07/19 01:17:45;;;;;;;6.18;1.90;;;;;;;24.56;56.43;100256.00;5010309;28;20038;-71
2021/07/19 01:20:13;;;;;;;9.30;2.15;;;;;;;24.56;56.57;100256.00;5008541;28;20046;-71
2021/07/19 01:23:08;;;;;;;9.85;2.30;;;;;;;24.55;56.56;100255.13;4990910;28;20064;-71
2021/07/19 01:26:02;;;;;;;5.47;1.85;;;;;;;24.61;56.56;100254.81;5008826;28;20038;-70
2021/07/19 01:28:36;;;;;;;5.10;2.00;;;;;;;24.66;56.40;100259.13;5010244;28;20053;-71
2021/07/19 01:31:06;;;;;;;;;;;;;;;24.65;55.92;100252.00;5008890;28;20041;-71
2021/07/19 01:33:34;;;;;;;8.50;2.00;;;;;;;24.63;56.23;100255.63;5009919;28;19921;-71
2021/07/19 01:36:03;;;;;;;4.65;1.83;;;;;;;24.59;56.67;100259.44;5008829;28;20056;-71
2021/07/19 01:38:30;;;;;;;7.13;2.63;;;;;;;24.45;56.69;100258.38;5009621;28;20042;-71
2021/07/19 01:40:59;;;;;;;4.75;1.83;;;;;;;24.33;57.08;100261.69;5006739;28;20042;-71
2021/07/19 01:43:28;;;;;;;5.45;2.00;;;;;;;24.34;57.04;100263.44;4998735;28;20049;-71
2021/07/19 01:45:58;;;;;;;3.72;1.90;;;;;;;24.36;56.73;100256.13;5004757;28;20037;-70
2021/07/19 01:48:26;;;;;;;9.35;2.35;;;;;;;24.33;57.12;100251.78;5008685;28;20068;-71
2021/07/19 01:50:54;;;;;;;9.30;2.75;;;;;;;24.17;57.59;100256.13;5009547;28;20038;-70
2021/07/19 01:53:22;;;;;;;5.40;2.00;;;;;;;24.07;57.85;100252.13;5007895;28;20092;-71
2021/07/19 01:55:50;;;;;;;5.47;2.65;;;;;;;23.95;57.90;100241.94;5008970;28;20041;-71
2021/07/19 01:58:18;;;;;;;4.38;2.38;;;;;;;23.81;58.26;100248.84;5006937;28;20123;-71
2021/07/19 02:00:46;;;;;;;6.50;2.35;;;;;;;23.90;58.31;100246.66;5009180;28;20575;-71
2021/07/19 02:03:16;;;;;;;6.75;2.17;;;;;;;23.97;58.11;100250.81;5006158;28;20599;-71
2021/07/19 02:05:45;;;;;;;6.10;2.50;;;;;;;23.90;58.38;100247.53;5009387;28;20045;-71
2021/07/19 02:08:17;;;;;;;7.53;2.33;;;;;;;23.76;58.52;100258.97;5007088;28;20054;-70
2021/07/19 02:10:48;;;;;;;7.45;2.08;;;;;;;23.68;58.69;100253.06;5008811;28;20096;-71
2021/07/19 02:13:17;;;;;;;4.10;2.10;;;;;;;23.69;58.41;100260.22;5007446;28;20045;-70
2021/07/19 02:15:45;;;;;;;5.93;2.20;;;;;;;23.65;58.33;100255.91;5008158;28;20068;-71
2021/07/19 02:18:16;;;;;;;8.98;2.30;;;;;;;23.63;58.27;100260.47;5006482;28;20030;-70
2021/07/19 02:20:45;;;;;;;6.85;2.30;;;;;;;23.59;58.29;100255.31;4985304;28;20046;-71
2021/07/19 02:23:14;;;;;;;4.68;1.88;;;;;;;23.60;58.17;100263.31;5006945;28;20057;-71
2021/07/19 02:25:43;;;;;;;5.20;2.17;;;;;;;23.60;58.47;100259.75;5009336;28;20034;-71
2021/07/19 02:28:12;;;;;;;5.78;1.98;;;;;;;23.62;58.32;100258.75;5007158;28;20042;-70
2021/07/19 02:30:41;;;;;;;5.55;2.30;;;;;;;23.59;58.28;100256.19;5003561;28;20527;-70
2021/07/19 02:33:11;;;;;;;7.07;2.22;;;;;;;23.51;58.56;100261.03;5006428;28;20748;-71
2021/07/19 02:35:41;;;;;;;4.53;2.10;;;;;;;23.46;58.85;100265.75;5007879;28;20045;-70
2021/07/19 02:38:11;;;;;;;5.60;2.50;;;;;;;23.54;58.99;100274.38;5006488;28;20046;-70
2021/07/19 02:40:42;;;;;;;7.03;2.20;;;;;;;23.57;58.96;100271.53;5008021;28;20049;-70
2021/07/19 02:43:11;;;;;;;10.27;2.40;;;;;;;23.54;58.91;100279.78;5002226;28;20503;-71
2021/07/19 02:45:41;;;;;;;6.65;2.17;;;;;;;23.54;59.01;100278.91;5002233;28;20034;-70
2021/07/19 02:48:10;;;;;;;8.18;2.75;;;;;;;23.51;58.93;100277.22;5005866;28;20056;-70
2021/07/19 02:50:41;;;;;;;7.88;2.50;;;;;;;23.50;59.14;100280.84;5001963;28;20411;-70
2021/07/19 02:53:11;;;;;;;7.15;2.80;;;;;;;23.44;59.27;100284.66;5006618;28;20030;-71
2021/07/19 02:55:41;;;;;;;6.90;2.90;;;;;;;23.45;59.46;100274.75;5007587;28;20560;-71
2021/07/19 02:58:12;;;;;;;7.75;2.70;;;;;;;23.49;59.89;100286.34;5006023;28;20037;-71
2021/07/19 03:00:40;;;;;;;5.28;2.28;;;;;;;23.54;59.87;100284.28;5008312;28;20053;-71
2021/07/19 03:03:10;;;;;;;10.73;2.38;;;;;;;23.57;59.93;100282.31;4988330;28;20053;-70
2021/07/19 03:05:42;;;;;;;10.57;3.10;;;;;;;23.56;60.16;100286.00;5008085;28;20069;-70
2021/07/19 03:08:12;;;;;;;9.25;2.85;;;;;;;23.55;60.17;100296.81;5006907;28;20054;-70
2021/07/19 03:10:40;;;;;;;9.48;2.97;;;;;;;23.56;60.31;100302.16;5001679;28;20045;-71
2021/07/19 03:13:12;;;;;;;6.30;3.13;;;;;;;23.57;60.40;100295.78;5006266;28;20523;-71
2021/07/19 03:15:41;;;;;;;7.68;3.20;;;;;;;23.58;60.48;100288.59;5001905;28;20049;-71
2021/07/19 03:18:10;;;;;;;15.55;3.35;;;;;;;23.59;60.53;100293.91;5005841;28;20034;-71
2021/07/19 03:20:42;;;;;;;9.88;3.25;;;;;;;23.59;60.49;100295.72;5001348;28;20495;-70
2021/07/19 03:23:13;;;;;;;5.70;2.50;;;;;;;23.56;60.61;100296.78;5004133;28;20045;-71
2021/07/19 03:25:41;;;;;;;8.77;3.40;;;;;;;23.53;60.78;100294.19;5001572;28;20048;-71
2021/07/19 03:28:10;;;;;;;9.23;2.75;;;;;;;23.55;61.10;100308.50;5006758;28;20046;-71
2021/07/19 03:30:38;;;;;;;6.03;2.80;;;;;;;23.48;61.26;100309.72;5001234;28;20041;-70
2021/07/19 03:33:06;;;;;;;9.15;2.78;;;;;;;23.40;61.41;100317.22;5005172;28;20041;-70
2021/07/19 03:35:35;;;;;;;6.40;2.83;;;;;;;23.37;61.68;100311.94;5008033;28;20499;-70
2021/07/19 03:38:06;;;;;;;6.53;3.17;;;;;;;23.50;61.62;100312.34;5006443;28;20457;-71
2021/07/19 03:40:33;;;;;;;11.07;3.50;;;;;;;23.64;61.42;100310.75;5007290;28;20046;-71
2021/07/19 03:43:04;;;;;;;8.18;2.35;;;;;;;23.83;61.16;100306.25;5005562;28;20399;-71
2021/07/19 03:46:12;;;;;;;9.40;3.30;;;;;;;24.04;61.06;100312.47;5001168;28;20057;-71
2021/07/19 03:48:40;;;;;;;8.57;2.40;;;;;;;24.19;60.89;100310.91;5007210;28;20049;-70
2021/07/19 03:51:08;;;;;;;12.48;2.72;;;;;;;24.33;60.94;100321.94;5004902;28;20054;-71
2021/07/19 03:53:39;;;;;;;5.65;1.90;;;;;;;24.52;60.77;100312.00;5000352;28;20054;-71
2021/07/19 03:56:08;;;;;;;9.90;2.50;;;;;;;24.69;60.17;100318.38;5005502;28;20057;-71
2021/07/19 03:58:36;;;;;;;8.32;1.92;;;;;;;24.85;59.83;100308.56;5005446;28;20045;-70
2021/07/19 04:01:05;;;;;;;8.95;2.17;;;;;;;25.01;59.38;100314.94;5005290;28;20049;-71
2021/07/19 04:03:44;;;;;;;5.55;2.25;;;;;;;25.19;59.09;100316.72;5006768;28;20045;-70
2021/07/19 04:06:15;;;;;;;5.75;2.15;;;;;;;25.28;58.79;100318.94;5005447;28;20038;-71
2021/07/19 04:08:44;;;;;;;8.05;1.98;;;;;;;25.47;58.61;100320.69;5006547;28;20034;-70
2021/07/19 04:11:14;;;;;;;5.97;2.00;;;;;;;25.67;58.30;100323.22;5004135;28;20439;-71
2021/07/19 04:13:43;;;;;;;6.88;1.73;;;;;;;25.88;57.52;100330.19;5006307;28;20049;-71
2021/07/19 04:16:14;;;;;;;6.05;1.48;;;;;;;26.04;57.05;100331.09;5005144;28;20038;-71
2021/07/19 04:18:42;;;;;;;11.63;2.85;;;;;;;26.23;57.01;100338.19;5002921;28;20048;-71
2021/07/19 04:21:09;;;;;;;6.47;1.90;;;;;;;26.40;56.21;100332.72;5004380;28;20415;-71
2021/07/19 04:23:38;;;;;;;7.18;1.73;;;;;;;26.59;56.02;100328.00;5005922;28;20038;-71
2021/07/19 04:26:07;;;;;;;9.38;2.03;;;;;;;26.79;55.47;100343.09;5005259;28;20034;-71
2021/07/19 04:28:35;;;;;;;8.73;1.65;;;;;;;26.96;54.80;100337.63;5007227;28;20041;-71
2021/07/19 04:31:03;;;;;;;6.22;1.85;;;;;;;27.12;54.40;100343.00;5005754;28;20049;-72
2021/07/19 04:33:30;;;;;;;2.95;1.38;;;;;;;27.25;53.33;100344.88;5006470;28;20057;-71
2021/07/19 04:35:57;;;;;;;5.70;1.67;;;;;;;27.41;53.27;100338.53;5006326;28;20037;-71
2021/07/19 04:38:25;;;;;;;6.57;1.95;;;;;;;27.59;53.24;100346.47;5004061;28;20621;-71
2021/07/19 04:40:55;;;;;;;5.57;1.52;;;;;;;27.77;53.13;100345.31;5006499;28;20042;-71
2021/07/19 04:43:27;;;;;;;6.32;1.80;;;;;;;27.97;52.68;100349.50;5005039;28;20059;-71
2021/07/19 04:45:55;;;;;;;8.57;2.55;;;;;;;28.12;51.83;100347.66;5005409;28;20038;-71
2021/07/19 04:48:23;;;;;;;7.35;2.55;;;;;;;28.29;52.28;100355.63;5003452;28;20046;-72
2021/07/19 04:50:51;;;;;;;8.30;1.88;;;;;;;28.49;52.14;100360.63;5006030;28;20050;-71
2021/07/19 04:53:18;;;;;;;7.75;2.00;;;;;;;28.68;51.98;100349.47;4999576;28;20037;-71
2021/07/19 04:55:50;;;;;;;6.95;2.05;;;;;;;28.82;51.76;100356.69;5001702;28;20050;-72
2021/07/19 04:58:19;;;;;;;11.25;2.10;;;;;;;28.96;51.93;100362.09;5003767;28;20369;-72
2021/07/19 05:00:51;;;;;;;7.57;2.33;;;;;;;29.21;51.77;100367.63;5005365;28;20038;-71
2021/07/19 05:03:20;;;;;;;11.35;2.97;;;;;;;29.39;51.71;100364.69;5001201;28;20046;-72
2021/07/19 05:05:49;;;;;;;7.47;2.80;;;;;;;29.57;51.77;100369.72;5009989;28;20057;-71
2021/07/19 05:08:21;;;;;;;10.95;2.67;;;;;;;29.78;51.44;100369.19;5003687;28;20030;-70
2021/07/19 05:10:50;;;;;;;9.80;3.08;;;;;;;29.92;51.24;100377.28;5005021;28;20041;-71
2021/07/19 05:13:20;;;;;;;11.68;3.40;;;;;;;30.11;51.08;100372.28;5003515;28;20092;-71
2021/07/19 05:15:50;;;;;;;8.07;3.50;;;;;;;30.34;50.33;100371.47;5004699;28;20037;-70
2021/07/19 05:18:18;;;;;;;7.70;3.42;;;;;;;30.53;50.21;100379.19;5003928;28;20057;-70
2021/07/19 05:20:46;;;;;;;7.15;3.15;;;;;;;30.73;49.74;100378.59;5007239;28;20045;-70
2021/07/19 05:23:14;;;;;;;12.45;3.20;;;;;;;30.83;49.29;100381.53;5007234;28;20500;-71
2021/07/19 05:25:41;;;;;;;9.70;3.20;;;;;;;31.00;48.72;100380.25;5009805;28;20411;-71
2021/07/19 05:28:11;;;;;;;9.98;2.90;;;;;;;31.15;48.56;100384.59;5006701;28;20053;-71
2021/07/19 05:30:40;;;;;;;15.48;3.50;;;;;;;31.35;48.15;100381.22;5003016;28;20045;-69
2021/07/19 05:33:09;;;;;;;12.70;3.20;;;;;;;31.55;47.87;100385.13;5006019;28;20041;-70
2021/07/19 05:35:38;;;;;;;9.55;3.00;;;;;;;31.69;47.51;100386.81;5003015;28;20085;-69
2021/07/19 05:38:06;;;;;;;9.50;3.17;;;;;;;31.88;47.05;100392.56;5005525;28;20141;-70
2021/07/19 05:40:33;;;;;;;8.57;3.17;;;;;;;32.13;46.57;100380.56;5015824;28;20051;-71
2021/07/19 05:43:01;;;;;;;9.73;2.75;;;;;;;32.29;46.11;100390.19;4992740;28;20050;-71
2021/07/19 05:45:29;;;;;;;7.50;3.13;;;;;;;32.63;45.58;100387.41;5013818;28;20407;-70
2021/07/19 05:47:57;;;;;;;6.40;2.30;;;;;;;32.83;44.54;100389.38;5012002;28;20065;-70
2021/07/19 05:50:27;;;;;;;12.85;3.15;;;;;;;33.03;44.00;100393.19;5007528;28;20041;-71
2021/07/19 05:52:56;;;;;;;7.78;2.80;;;;;;;33.16;43.45;100386.56;5007760;28;20038;-71
2021/07/19 05:55:23;;;;;;;9.30;2.75;;;;;;;33.37;42.50;100383.03;5002499;28;20455;-71
2021/07/19 05:57:51;;;;;;;7.82;2.85;;;;;;;33.50;42.27;100390.06;5008088;28;20049;-71
2021/07/19 06:00:19;;;;;;;7.60;2.30;;;;;;;33.77;41.75;100384.09;5007029;28;20392;-70
2021/07/19 06:02:46;;;;;;;5.78;2.15;;;;;;;33.93;41.14;100390.00;5008831;28;20046;-71
2021/07/19 06:05:15;;;;;;;7.53;2.13;;;;;;;34.19;40.52;100397.78;5005530;28;20037;-71
2021/07/19 06:07:45;;;;;;;6.53;2.10;;;;;;;34.37;39.30;100396.16;5009086;28;20496;-71
2021/07/19 06:10:13;;;;;;;9.95;2.22;;;;;;;34.60;38.80;100394.94;5008416;28;20045;-70
2021/07/19 06:12:42;;;;;;;6.65;2.10;;;;;;;34.66;38.27;100394.38;5008602;28;20403;-70
2021/07/19 06:15:11;;;;;;;8.38;2.28;;;;;;;34.78;37.91;100393.31;5007326;28;20058;-70
2021/07/19 06:17:39;;;;;;;9.00;2.58;;;;;;;34.78;37.87;100393.31;5008147;28;20050;-69
2021/07/19 06:20:09;;;;;;;5.65;1.75;;;;;;;35.03;36.73;100388.31;5006482;28;20052;-70
2021/07/19 06:22:37;;;;;;;4.65;1.55;;;;;;;35.04;35.33;100390.06;5008961;28;20042;-70
2021/07/19 06:25:08;;;;;;;5.55;1.67;;;;;;;35.22;34.86;100402.09;5006351;28;20492;-70
2021/07/19 06:27:36;;;;;;;3.58;1.50;;;;;;;35.51;34.05;100396.63;4999258;28;20034;-68
2021/07/19 06:30:05;;;;;;;5.15;1.48;;;;;;;35.75;33.54;100399.81;5008007;28;20407;-68
2021/07/19 06:32:33;;;;;;;2.88;1.30;;;;;;;35.99;33.05;100392.97;5001363;28;20042;-69
2021/07/19 06:35:01;;;;;;;5.03;1.48;;;;;;;36.15;32.37;100398.72;4999414;28;20038;-68
2021/07/19 06:37:28;;;;;;;3.83;1.30;;;;;;;36.26;31.54;100399.44;5005400;28;20096;-69
2021/07/19 06:39:55;;;;;;;8.27;1.77;;;;;;;36.15;32.91;100395.97;5007544;28;20402;-68
2021/07/19 06:42:25;;;;;;;8.45;1.98;;;;;;;35.91;34.85;100391.81;5004946;28;20050;-69
2021/07/19 06:44:56;;;;;;;6.65;1.77;;;;;;;35.78;35.73;100391.25;5003318;28;20038;-69
2021/07/19 06:47:24;;;;;;;5.72;1.50;;;;;;;35.39;36.15;100395.00;5005755;28;20105;-68
2021/07/19 06:49:51;;;;;;;9.65;2.15;;;;;;;35.15;36.64;100384.44;5011342;28;20046;-69
2021/07/19 06:52:18;;;;;;;5.90;1.52;;;;;;;35.34;36.54;100383.59;5007365;28;20034;-68
2021/07/19 06:54:45;;;;;;;4.15;1.30;;;;;;;35.43;35.95;100385.50;5007396;28;20050;-68
2021/07/19 06:57:13;;;;;;;6.13;1.75;;;;;;;35.25;36.28;100392.72;5005527;28;20035;-69
2021/07/19 06:59:42;;;;;;;3.88;1.50;;;;;;;35.29;35.77;100391.41;5007477;28;20046;-68
2021/07/19 07:02:10;;;;;;;8.13;1.58;;;;;;;35.21;35.46;100389.38;4998264;28;20052;-68
2021/07/19 07:04:37;;;;;;;12.80;1.90;;;;;;;35.12;35.81;100392.94;5002267;28;20050;-68
2021/07/19 07:07:05;;;;;;;5.60;1.27;;;;;;;34.96;35.54;100393.50;5006415;28;20465;-69
2021/07/19 07:09:33;;;;;;;4.60;1.10;;;;;;;34.81;35.10;100397.66;5007619;28;20124;-69
2021/07/19 07:12:01;;;;;;;6.18;1.40;;;;;;;34.85;35.08;100399.13;5007678;28;20042;-68
2021/07/19 07:14:28;;;;;;;4.75;1.45;;;;;;;35.01;34.77;100401.31;5007238;28;20730;-69
2021/07/19 07:16:57;;;;;;;5.05;1.40;;;;;;;34.99;34.45;100401.44;5001489;28;20050;-70
2021/07/19 07:19:26;;;;;;;4.45;1.45;;;;;;;34.93;34.72;100395.66;5001799;28;20053;-69
2021/07/19 07:21:54;;;;;;;3.63;0.98;;;;;;;34.92;34.54;100400.25;5005966;28;20038;-68
2021/07/19 07:24:21;;;;;;;5.35;1.40;;;;;;;34.83;34.50;100408.50;5004931;28;20038;-70
2021/07/19 07:26:49;;;;;;;5.20;1.33;;;;;;;34.78;34.50;100407.03;5006459;28;20053;-69
2021/07/19 07:29:16;;;;;;;3.25;1.20;;;;;;;34.95;34.22;100404.63;4986808;28;20034;-69
2021/07/19 07:31:44;;;;;;;2.80;1.30;;;;;;;34.73;34.39;100406.56;5005583;28;20053;-69
2021/07/19 07:34:12;;;;;;;7.32;1.50;;;;;;;34.75;34.32;100406.44;5002653;28;20041;-69
2021/07/19 07:36:40;;;;;;;5.78;1.85;;;;;;;34.73;34.33;100408.44;5003822;28;20577;-69
2021/07/19 07:39:08;;;;;;;7.05;1.80;;;;;;;34.79;35.15;100407.88;5006313;28;20049;-69
2021/07/19 07:41:35;;;;;;;8.68;1.60;;;;;;;35.03;35.28;100411.16;5005611;28;20112;-69
2021/07/19 07:44:03;;;;;;;4.57;1.55;;;;;;;35.23;35.67;100411.22;5005924;28;20038;-69
2021/07/19 07:46:30;;;;;;;8.38;1.48;;;;;;;35.14;35.69;100401.91;5006727;28;20046;-69
2021/07/19 07:48:58;;;;;;;5.30;1.50;;;;;;;35.18;35.43;100408.88;5003662;28;20399;-69
2021/07/19 07:51:26;;;;;;;4.60;1.20;;;;;;;35.17;35.80;100409.88;5004481;28;20412;-70
2021/07/19 07:53:54;;;;;;;4.82;1.33;;;;;;;35.09;35.98;100410.56;5005263;28;20526;-69
2021/07/19 07:56:21;;;;;;;7.95;1.60;;;;;;;35.02;36.15;100403.91;5005518;28;23787;-69
2021/07/19 07:58:49;;;;;;;6.07;1.23;;;;;;;34.91;35.67;100414.16;5006985;28;20407;-69
2021/07/19 08:01:16;;;;;;;4.07;1.35;;;;;;;35.10;35.77;100412.31;5006212;28;20523;-69
2021/07/19 08:03:43;;;;;;;5.97;1.52;;;;;;;35.03;36.15;100411.16;5008331;28;20050;-70
2021/07/19 08:06:12;;;;;;;5.88;1.30;;;;;;;34.62;36.39;100409.41;5004914;28;20112;-69
2021/07/19 08:08:41;;;;;;;6.90;1.52;;;;;;;34.76;36.77;100413.66;5007058;28;20789;-69
2021/07/19 08:11:09;;;;;;;5.47;1.38;;;;;;;35.08;36.31;100410.72;5005494;28;20049;-69
2021/07/19 08:13:37;;;;;;;5.30;1.52;;;;;;;35.10;36.35;100405.97;5000763;28;20392;-69
2021/07/19 08:16:05;;;;;;;6.32;1.38;;;;;;;35.47;35.76;100404.28;5006439;28;20050;-69
2021/07/19 08:18:33;;;;;;;8.43;1.63;;;;;;;35.62;35.37;100409.34;5006732;28;20407;-71
2021/07/19 08:21:01;;;;;;;8.52;1.52;;;;;;;35.60;35.18;100414.97;5007107;28;20050;-69
2021/07/19 08:23:28;;;;;;;3.78;1.17;;;;;;;35.42;34.73;100416.72;5005897;28;20093;-69
2021/07/19 08:25:58;;;;;;;4.35;1.02;;;;;;;35.46;34.90;100409.91;5006730;28;20121;-70
2021/07/19 08:28:25;;;;;;;4.55;1.23;;;;;;;35.60;34.95;100408.59;5005549;28;20050;-69
2021/07/19 08:30:53;;;;;;;5.50;1.48;;;;;;;35.66;34.69;100411.63;5006766;28;20042;-68
2021/07/19 08:33:20;;;;;;;5.50;1.30;;;;;;;35.87;34.63;100408.75;5005288;28;20409;-69
2021/07/19 08:35:49;;;;;;;5.20;1.40;;;;;;;35.65;34.69;100403.53;5007009;28;20404;-69
2021/07/19 08:38:17;;;;;;;2.67;0.93;;;;;;;35.56;34.88;100410.78;5005026;28;20038;-69
2021/07/19 08:40:48;;;;;;;3.95;1.73;;;;;;;35.27;34.66;100408.03;5006718;28;20408;-68
2021/07/19 08:43:17;;;;;;;10.82;1.83;;;;;;;35.28;35.11;100409.75;5005713;28;20038;-68
2021/07/19 08:45:44;;;;;;;5.40;1.50;;;;;;;35.38;35.14;100413.38;5006445;28;20057;-69
2021/07/19 08:48:12;;;;;;;4.70;1.50;;;;;;;35.36;35.24;100414.53;5005277;28;20041;-68
2021/07/19 08:50:39;;;;;;;4.88;1.30;;;;;;;35.65;34.97;100411.78;5006591;28;20045;-68
2021/07/19 08:53:08;;;;;;;4.05;1.30;;;;;;;35.93;34.80;100413.66;5005980;28;20042;-68
2021/07/19 08:55:36;;;;;;;10.07;1.30;;;;;;;36.25;34.13;100411.44;5008341;28;20376;-68
2021/07/19 08:58:06;;;;;;;6.15;1.52;;;;;;;36.32;33.29;100407.09;5006213;28;20049;-68
2021/07/19 09:00:35;;;;;;;5.25;1.38;;;;;;;36.19;33.68;100408.44;4991091;28;20048;-69
2021/07/19 09:03:04;;;;;;;7.80;1.30;;;;;;;36.20;34.25;100404.66;5008111;28;20089;-68
2021/07/19 09:05:32;;;;;;;5.75;1.40;;;;;;;36.27;33.88;100405.81;5008023;28;20104;-68
2021/07/19 09:08:00;;;;;;;3.28;1.10;;;;;;;35.71;34.22;100405.75;5008738;28;20042;-68
2021/07/19 09:10:29;;;;;;;3.67;1.48;;;;;;;35.67;34.73;100398.78;5008365;28;20056;-68
2021/07/19 09:13:00;;;;;;;5.85;2.05;;;;;;;35.71;34.75;100401.09;5008071;28;20655;-68
2021/07/19 09:15:33;;;;;;;6.30;1.45;;;;;;;35.99;34.96;100402.06;5009158;28;20052;-69
2021/07/19 09:18:04;;;;;;;5.97;1.30;;;;;;;36.21;34.25;100401.78;5008633;28;20049;-68
2021/07/19 09:20:35;;;;;;;6.35;1.40;;;;;;;36.20;34.27;100401.91;5009776;28;20057;-68
2021/07/19 09:23:03;;;;;;;4.95;1.10;;;;;;;36.05;34.15;100397.84;5008042;28;20049;-69
2021/07/19 09:25:30;;;;;;;5.78;1.40;;;;;;;35.99;33.69;100398.47;5009758;28;20042;-68
2021/07/19 09:28:02;;;;;;;4.70;1.40;;;;;;;36.01;33.25;100402.81;5009249;28;20404;-69
2021/07/19 09:30:30;;;;;;;2.78;1.25;;;;;;;36.08;33.54;100400.31;5009190;28;20042;-68
2021/07/19 09:33:04;;;;;;;3.55;1.40;;;;;;;36.16;33.54;100403.22;5002979;28;20053;-68
2021/07/19 09:35:33;;;;;;;3.97;1.50;;;;;;;35.94;34.04;100398.91;5008699;28;20058;-68
2021/07/19 09:38:06;;;;;;;5.72;1.38;;;;;;;35.61;34.37;100394.72;5009011;28;20509;-69
2021/07/19 09:40:35;;;;;;;5.15;1.52;;;;;;;35.00;35.04;100391.31;5009284;28;20128;-67
2021/07/19 09:43:13;;;;;;;6.15;1.42;;;;;;;35.05;34.84;100387.16;5008459;28;20050;-68
2021/07/19 09:45:41;;;;;;;4.15;1.02;;;;;;;34.96;34.79;100379.78;5004399;28;20041;-69
2021/07/19 09:48:11;;;;;;;4.05;1.50;;;;;;;34.19;35.22;100382.22;5008573;28;20076;-69
2021/07/19 09:50:41;;;;;;;4.82;1.33;;;;;;;33.78;36.33;100380.38;5003532;28;20037;-68
2021/07/19 09:53:09;;;;;;;4.93;1.38;;;;;;;33.81;36.74;100391.03;5008157;28;20045;-68
2021/07/19 09:55:37;;;;;;;2.92;1.33;;;;;;;33.79;36.21;100383.97;5002639;28;20111;-67
2021/07/19 09:58:06;;;;;;;5.72;1.40;;;;;;;33.77;36.28;100392.31;5007377;28;20046;-68
2021/07/19 10:00:35;;;;;;;4.65;1.55;;;;;;;33.60;36.39;100406.59;5009192;28;20159;-68
2021/07/19 10:03:15;;;;;;;4.20;1.20;;;;;;;33.48;35.93;100402.13;5008353;28;20065;-67
2021/07/19 10:05:44;;;;;;;6.38;1.50;;;;;;;33.95;35.44;100412.63;5007531;28;20409;-68
2021/07/19 10:08:22;;;;;;;6.68;1.55;;;;;;;34.38;34.62;100420.72;5007791;28;20030;-68
2021/07/19 10:10:50;;;;;;;4.63;1.50;;;;;;;34.59;34.55;100420.63;5008888;28;20045;-68
2021/07/19 10:13:17;;;;;;;8.82;1.42;;;;;;;35.21;33.71;100422.31;5007907;28;20038;-68
2021/07/19 10:15:46;;;;;;;4.38;1.63;;;;;;;35.66;33.09;100419.88;5005246;28;20060;-67
2021/07/19 10:18:17;;;;;;;2.28;0.90;;;;;;;35.90;32.56;100422.22;5005003;28;20053;-68
2021/07/19 10:20:45;;;;;;;3.38;1.10;;;;;;;35.99;32.54;100413.06;5008660;28;20173;-68
2021/07/19 10:23:13;;;;;;;3.55;0.70;;;;;;;35.99;32.83;100414.94;5006797;28;20554;-68
2021/07/19 10:25:41;;;;;;;4.88;1.20;;;;;;;36.12;33.18;100410.88;5008586;28;20044;-69
2021/07/19 10:28:08;;;;;;;6.78;1.30;;;;;;;36.19;33.16;100409.28;5006481;28;20053;-69
2021/07/19 10:30:36;;;;;;;4.60;0.98;;;;;;;36.13;32.34;100401.59;5008731;28;20046;-68
2021/07/19 10:33:04;;;;;;;4.00;1.25;;;;;;;35.91;32.37;100385.44;5006692;28;20065;-70
2021/07/19 10:35:33;;;;;;;4.25;1.20;;;;;;;35.65;33.23;100398.03;5008117;28;20049;-69
2021/07/19 10:38:05;;;;;;;6.38;1.33;;;;;;;35.62;33.34;100392.84;5007544;28;20495;-68
2021/07/19 10:40:35;;;;;;;10.85;1.90;;;;;;;35.41;34.62;100380.13;5008615;28;20054;-67
2021/07/19 10:43:08;;;;;;;5.00;1.35;;;;;;;35.32;34.46;100370.00;5009107;28;21388;-69
2021/07/19 10:45:40;;;;;;;2.97;1.30;;;;;;;35.17;35.44;100368.69;5008289;28;20049;-68
2021/07/19 10:48:08;;;;;;;3.55;1.33;;;;;;;35.12;35.43;100381.94;5006102;28;20034;-68
2021/07/19 10:50:42;;;;;;;7.35;1.70;;;;;;;35.09;36.39;100380.38;5009090;28;20506;-67
2021/07/19 10:53:20;;;;;;;6.18;1.40;;;;;;;35.02;36.36;100375.59;5007248;28;20042;-67
2021/07/19 10:56:03;;;;;;;11.13;2.17;;;;;;;35.16;35.37;100347.72;5008031;28;20045;-68
2021/07/19 10:58:41;;;;;;;8.15;1.67;;;;;;;35.05;35.67;100376.16;5007461;28;20038;-68
2021/07/19 11:01:22;;;;;;;7.82;2.08;;;;;;;35.19;36.18;100375.75;5006413;28;20533;-67
2021/07/19 11:03:51;;;;;;;6.95;1.30;;;;;;;35.41;36.05;100362.78;5007525;28;20054;-67
2021/07/19 11:06:31;;;;;;;5.13;1.45;;;;;;;35.53;36.00;100370.72;5006608;28;20037;-67
2021/07/19 11:08:59;;;;;;;6.85;1.52;;;;;;;35.72;36.54;100369.00;5008502;28;20066;-67
2021/07/19 11:11:30;;;;;;;9.20;1.70;;;;;;;35.88;36.35;100370.13;5006870;28;20040;-67
2021/07/19 11:13:59;;;;;;;4.82;1.63;;;;;;;36.01;36.63;100369.81;5007221;28;20035;-67
2021/07/19 11:16:26;;;;;;;6.43;1.48;;;;;;;36.02;36.28;100370.69;4996084;28;20034;-67
2021/07/19 11:18:55;;;;;;;3.65;1.33;;;;;;;35.97;36.22;100348.28;5005720;28;20451;-67
2021/07/19 11:21:27;;;;;;;7.05;1.65;;;;;;;35.83;36.36;100360.63;5005301;28;20062;-67
2021/07/19 11:23:55;;;;;;;8.18;1.13;;;;;;;35.92;35.70;100359.69;4989697;28;20041;-67
2021/07/19 11:26:25;;;;;;;6.10;1.38;;;;;;;35.87;35.73;100373.03;5006660;28;20117;-67
2021/07/19 11:28:56;;;;;;;7.65;1.60;;;;;;;35.47;36.27;100379.56;5003317;28;20504;-68
2021/07/19 11:31:27;;;;;;;6.43;1.40;;;;;;;35.37;36.07;100375.09;5012479;28;20053;-67
2021/07/19 11:34:02;;;;;;;8.00;1.70;;;;;;;35.54;36.08;100369.72;5007601;28;20056;-67